»·PEaware :: N1306C KCRQ-KTOA

N1306C :: KCRQ-KTOA

FLIGHT INFORMATION

Flight Status: Arrived
Operator: Privately registered:
United States
More flights under this callsign
Pilot: Mark S. (16827)
Aircraft: CESSNA 172 SKYHAWK
(C172)
More flights by this aircraft type
Origin: KCRQ McClellan-Palomar
United States
Destination: KTOA Zamperini
United States
More flights between these airports :: More routes between these airports
Route: +OCN V23 SLI
File this flight plan on PilotEdge
Remarks: SANP3
Altitude:
(Current/Filed)
6,000ft
Speed:
(Current/Filed)
120kts
Departed: 01-Dec-19 05:35 PM
Arrived: 01-Dec-19 06:18 PM
Distance/Time
Traveled:
67nm/0:43
Distance/Time
To Go:
Arrived

Flight Plot

Page will automatically refresh every two minutes.


Map Options




Map Legend


Flown Route
Filed Route
Departure Airport
Arrival Airport
Navaid (VOR, NDB)
Fix

Horizontal Profiles

Position Reports

Time Latitude Longitude Heading Altitude Ground
Speed
01-Dec-19 17:09 33.126979 -117.278876 167 335ft 0kts
01-Dec-19 17:10 33.126979 -117.278876 167 335ft 0kts
01-Dec-19 17:11 33.126979 -117.278876 167 335ft 0kts
01-Dec-19 17:12 33.126979 -117.278876 167 335ft 0kts
01-Dec-19 17:13 33.126979 -117.278876 167 335ft 0kts
01-Dec-19 17:14 33.126979 -117.278876 167 335ft 0kts
01-Dec-19 17:15 33.126979 -117.278876 167 335ft 0kts
01-Dec-19 17:16 33.126979 -117.278876 167 335ft 0kts
01-Dec-19 17:17 33.126979 -117.278876 167 335ft 0kts
01-Dec-19 17:18 33.126979 -117.278876 167 335ft 0kts
01-Dec-19 17:19 33.126979 -117.278876 167 335ft 0kts
01-Dec-19 17:20 33.126979 -117.278876 167 335ft 0kts
01-Dec-19 17:21 33.126924 -117.278812 99 335ft 3kts
01-Dec-19 17:22 33.126969 -117.278730 18 335ft 0kts
01-Dec-19 17:23 33.126969 -117.278730 18 335ft 0kts
01-Dec-19 17:24 33.127220 -117.278643 13 335ft 6kts
01-Dec-19 17:25 33.128278 -117.274832 78 335ft 17kts
01-Dec-19 17:26 33.128724 -117.272412 15 335ft 0kts
01-Dec-19 17:27 33.128724 -117.272412 15 335ft 0kts
01-Dec-19 17:28 33.128724 -117.272412 15 335ft 0kts
01-Dec-19 17:29 33.128724 -117.272412 15 335ft 0kts
01-Dec-19 17:30 33.128724 -117.272412 15 335ft 0kts
01-Dec-19 17:31 33.128724 -117.272412 15 335ft 0kts
01-Dec-19 17:32 33.128724 -117.272412 15 335ft 0kts
01-Dec-19 17:33 33.129221 -117.272406 351 335ft 6kts
01-Dec-19 17:34 33.126612 -117.289674 261 629ft 86kts
01-Dec-19 17:35 33.122907 -117.317613 261 1431ft 84kts
01-Dec-19 17:36 33.119055 -117.345522 262 2141ft 85kts
01-Dec-19 17:37 33.115155 -117.373697 260 2831ft 82kts
01-Dec-19 17:38 33.112124 -117.401074 289 3486ft 87kts
01-Dec-19 17:39 33.133692 -117.410269 350 4128ft 87kts
01-Dec-19 17:40 33.157252 -117.414685 351 4775ft 86kts
01-Dec-19 17:41 33.180809 -117.419215 352 5412ft 86kts
01-Dec-19 17:42 33.205445 -117.423842 353 5871ft 104kts
01-Dec-19 17:43 33.237395 -117.429704 350 5862ft 118kts
01-Dec-19 17:44 33.265886 -117.445155 310 5863ft 118kts
01-Dec-19 17:45 33.288711 -117.473643 315 5862ft 118kts
01-Dec-19 17:46 33.312355 -117.501272 316 5862ft 119kts
01-Dec-19 17:47 33.336065 -117.528922 316 5853ft 119kts
01-Dec-19 17:48 33.359836 -117.556654 316 5853ft 119kts
01-Dec-19 17:49 33.383494 -117.584289 316 5853ft 119kts
01-Dec-19 17:50 33.407158 -117.611905 316 5853ft 119kts
01-Dec-19 17:52 33.417277 -117.623693 316 5853ft 119kts
01-Dec-19 17:53 33.438740 -117.649076 310 5852ft 119kts
01-Dec-19 17:54 33.446534 -117.686870 280 5853ft 119kts
01-Dec-19 17:55 33.452844 -117.725926 282 5853ft 119kts
01-Dec-19 17:56 33.459366 -117.764794 282 5852ft 119kts
01-Dec-19 17:57 33.462925 -117.788104 280 5959ft 108kts
01-Dec-19 17:58 33.467009 -117.823924 279 5982ft 109kts
01-Dec-19 17:59 33.471727 -117.859621 280 5982ft 108kts
01-Dec-19 18:00 33.476874 -117.895224 280 5982ft 107kts
01-Dec-19 18:01 33.482452 -117.930429 280 5982ft 107kts
01-Dec-19 18:02 33.492796 -117.963314 310 5922ft 113kts
01-Dec-19 18:03 33.515715 -117.990924 311 5429ft 118kts
01-Dec-19 18:04 33.539205 -118.019080 311 4929ft 120kts
01-Dec-19 18:05 33.563211 -118.047815 311 4285ft 123kts
01-Dec-19 18:06 33.587399 -118.076841 311 3586ft 124kts
01-Dec-19 18:07 33.611803 -118.106310 311 2885ft 125kts
01-Dec-19 18:08 33.636196 -118.136036 312 2185ft 125kts
01-Dec-19 18:09 33.658815 -118.163525 311 1988ft 105kts
01-Dec-19 18:10 33.679093 -118.187848 311 1993ft 102kts
01-Dec-19 18:11 33.699237 -118.211805 311 1996ft 101kts
01-Dec-19 18:11 33.715759 -118.231272 310 1996ft 96kts
01-Dec-19 18:13 33.739792 -118.253727 318 2018ft 85kts
01-Dec-19 18:14 33.758168 -118.271761 311 1810ft 86kts
01-Dec-19 18:14 33.771459 -118.289432 303 1442ft 85kts
01-Dec-19 18:15 33.785512 -118.311160 305 896ft 75kts
01-Dec-19 18:17 33.798901 -118.331803 307 151ft 58kts
01-Dec-19 18:17 33.804202 -118.339852 308 101ft 28kts
01-Dec-19 18:18 33.805841 -118.343764 291 101ft 0kts
01-Dec-19 18:19 33.806027 -118.344401 289 101ft 8kts
01-Dec-19 18:20 33.804555 -118.345831 32 101ft 0kts
01-Dec-19 18:21 33.804556 -118.345830 31 101ft 0kts
01-Dec-19 18:22 33.804556 -118.345830 31 101ft 0kts
01-Dec-19 18:23 33.804556 -118.345830 31 101ft 0kts
01-Dec-19 18:24 33.804556 -118.345830 31 101ft 0kts
01-Dec-19 18:25 33.804556 -118.345830 31 101ft 0kts
01-Dec-19 18:26 33.804556 -118.345830 31 101ft 0kts
01-Dec-19 18:27 33.804556 -118.345830 31 101ft 0kts
01-Dec-19 18:28 33.804556 -118.345830 31 101ft 0kts
01-Dec-19 18:29 33.804556 -118.345830 31 101ft 0kts
01-Dec-19 18:30 33.804556 -118.345830 31 101ft 0kts
01-Dec-19 18:31 33.804556 -118.345830 31 101ft 0kts

Navigation Log

Ident Type
Flight plan parsing failed, navigation log unavailable